Time;durP1;ratioP1;P1;durP2;ratioP2;P2;SDS_P1;SDS_P2;PMS_P1;PMS_P2;Temp;Humidity;BMP_temperature;BMP_pressure;BME280_temperature;BME280_humidity;BME280_pressure;Samples;Min_cycle;Max_cycle;Signal;HPM_P1;HPM_P2
2021/07/30 00:00:58;;;;;;;6.72;2.80;;;13.00;81.80;;;;;;5070820;28;20421;-67
2021/07/30 00:03:24;;;;;;;9.35;3.17;;;13.10;81.40;;;;;;5070595;28;20032;-67
2021/07/30 00:05:51;;;;;;;8.52;2.83;;;13.00;81.60;;;;;;5088604;28;20024;-68
2021/07/30 00:08:18;;;;;;;10.00;3.85;;;13.10;81.30;;;;;;5089129;28;20106;-68
2021/07/30 00:10:43;;;;;;;10.15;2.88;;;13.10;81.30;;;;;;5090512;28;20103;-68
2021/07/30 00:13:09;;;;;;;13.00;3.28;;;13.10;81.20;;;;;;5068880;28;20124;-67
2021/07/30 00:15:34;;;;;;;7.30;3.10;;;13.00;81.20;;;;;;5063676;28;20032;-67
2021/07/30 00:18:00;;;;;;;12.90;3.38;;;13.00;81.80;;;;;;5065019;28;20023;-67
2021/07/30 00:20:25;;;;;;;7.60;3.38;;;13.00;81.80;;;;;;5089065;28;20024;-68
2021/07/30 00:22:51;;;;;;;10.50;2.90;;;12.90;81.90;;;;;;5068961;28;20399;-68
2021/07/30 00:25:17;;;;;;;9.48;3.17;;;12.90;82.30;;;;;;5070954;28;20411;-68
2021/07/30 00:27:43;;;;;;;14.60;3.58;;;12.90;82.60;;;;;;5064249;28;20499;-67
2021/07/30 00:30:10;;;;;;;13.05;3.40;;;12.80;82.90;;;;;;5087023;28;20506;-68
2021/07/30 00:32:36;;;;;;;9.00;3.53;;;12.80;82.50;;;;;;5069675;28;20028;-67
2021/07/30 00:35:02;;;;;;;7.60;3.25;;;12.80;82.80;;;;;;5088138;28;20059;-67
2021/07/30 00:37:27;;;;;;;14.00;3.90;;;12.80;83.00;;;;;;5053539;28;20031;-67
2021/07/30 00:39:53;;;;;;;10.45;3.53;;;12.70;83.20;;;;;;5079887;28;20062;-67
2021/07/30 00:42:18;;;;;;;7.22;3.58;;;12.70;83.20;;;;;;5069151;28;20089;-67
2021/07/30 00:44:44;;;;;;;11.85;3.45;;;12.70;83.00;;;;;;5054587;28;20028;-67
2021/07/30 00:47:10;;;;;;;15.13;3.85;;;12.60;83.10;;;;;;5067343;28;20462;-67
2021/07/30 00:49:36;;;;;;;11.00;3.67;;;12.60;83.40;;;;;;5069734;28;20418;-67
2021/07/30 00:52:03;;;;;;;9.10;3.63;;;12.60;83.60;;;;;;5068303;28;20405;-67
2021/07/30 00:54:28;;;;;;;9.52;3.65;;;12.60;83.70;;;;;;5067951;28;20058;-67
2021/07/30 00:56:54;;;;;;;9.75;3.85;;;12.70;83.30;;;;;;5088593;28;20476;-68
2021/07/30 00:59:22;;;;;;;9.40;3.78;;;12.60;83.30;;;;;;5066949;28;20077;-67
2021/07/30 01:01:49;;;;;;;11.57;3.90;;;12.50;83.70;;;;;;5065972;28;20028;-68
2021/07/30 01:04:15;;;;;;;12.57;3.58;;;12.50;83.80;;;;;;5088458;28;20226;-68
2021/07/30 01:06:41;;;;;;;11.95;4.32;;;12.60;83.40;;;;;;5088102;28;20071;-67
2021/07/30 01:09:07;;;;;;;11.90;3.75;;;12.60;83.40;;;;;;5088080;28;20032;-67
2021/07/30 01:11:34;;;;;;;7.38;3.53;;;12.60;83.40;;;;;;5088573;28;20020;-68
2021/07/30 01:13:59;;;;;;;8.52;4.00;;;12.60;83.10;;;;;;5067507;28;20077;-68
2021/07/30 01:16:25;;;;;;;9.68;3.63;;;12.60;83.20;;;;;;5084802;28;20020;-67
2021/07/30 01:18:50;;;;;;;15.63;4.07;;;12.60;83.10;;;;;;5090266;28;20057;-68
2021/07/30 01:21:29;;;;;;;8.63;3.53;;;12.50;83.00;;;;;;5064396;28;20387;-67
2021/07/30 01:23:55;;;;;;;9.02;3.92;;;12.60;83.10;;;;;;5071386;28;20044;-68
2021/07/30 01:26:21;;;;;;;12.82;4.38;;;12.60;82.70;;;;;;5064693;28;20059;-68
2021/07/30 01:28:47;;;;;;;11.68;3.78;;;12.50;83.20;;;;;;5077579;28;20019;-68
2021/07/30 01:31:13;;;;;;;10.65;3.75;;;12.50;83.30;;;;;;5068199;28;20452;-67
2021/07/30 01:33:38;;;;;;;10.27;4.20;;;12.50;83.30;;;;;;5086754;28;20059;-68
2021/07/30 01:36:05;;;;;;;9.20;3.90;;;12.40;83.00;;;;;;5051769;28;20576;-67
2021/07/30 01:38:31;;;;;;;14.25;3.92;;;12.40;83.00;;;;;;5069567;28;20523;-68
2021/07/30 01:41:09;;;;;;;12.73;4.30;;;12.40;82.90;;;;;;5069786;28;20051;-67
2021/07/30 01:43:39;;;;;;;12.48;4.05;;;12.40;82.90;;;;;;5069475;28;20028;-68
2021/07/30 01:46:05;;;;;;;9.73;3.80;;;12.40;82.80;;;;;;5065497;28;20032;-67
2021/07/30 01:48:31;;;;;;;8.02;3.85;;;12.30;82.70;;;;;;5086685;28;20452;-68
2021/07/30 01:50:57;;;;;;;10.13;3.85;;;12.40;82.60;;;;;;5088322;28;20016;-68
2021/07/30 01:53:22;;;;;;;9.88;3.72;;;12.40;82.80;;;;;;5064129;28;20036;-68
2021/07/30 01:55:48;;;;;;;9.65;3.65;;;12.30;82.80;;;;;;5083841;28;20107;-68
2021/07/30 01:58:14;;;;;;;8.82;3.95;;;12.30;82.80;;;;;;5051685;28;20020;-68
2021/07/30 02:00:39;;;;;;;11.02;3.92;;;12.20;83.20;;;;;;5064839;28;20512;-68
2021/07/30 02:03:05;;;;;;;9.88;4.03;;;12.20;83.00;;;;;;5085278;28;20435;-67
2021/07/30 02:05:31;;;;;;;9.10;3.33;;;12.20;83.10;;;;;;5087638;28;20031;-68
2021/07/30 02:07:56;;;;;;;11.27;3.75;;;12.20;83.20;;;;;;5086003;28;20536;-68
2021/07/30 02:10:22;;;;;;;10.25;3.60;;;12.20;83.30;;;;;;5070076;28;20046;-68
2021/07/30 02:15:32;;;;;;;9.70;3.83;;;12.10;83.40;;;;;;5084790;28;20077;-68
2021/07/30 02:17:57;;;;;;;10.43;4.18;;;12.10;83.80;;;;;;5082104;28;20749;-68
2021/07/30 02:20:23;;;;;;;12.95;4.20;;;12.00;83.80;;;;;;5085752;28;20096;-67
2021/07/30 02:22:49;;;;;;;12.70;3.85;;;12.00;83.80;;;;;;5067873;28;20035;-67
2021/07/30 02:25:14;;;;;;;15.85;4.10;;;12.10;83.80;;;;;;5065295;28;20415;-67
2021/07/30 02:27:40;;;;;;;12.18;4.00;;;12.10;83.80;;;;;;5081041;28;20033;-67
2021/07/30 02:30:06;;;;;;;10.38;3.78;;;12.10;83.70;;;;;;5060584;28;20442;-68
2021/07/30 02:32:32;;;;;;;6.38;3.72;;;12.00;84.10;;;;;;5084029;28;20290;-67
2021/07/30 02:34:57;;;;;;;9.80;4.32;;;12.10;83.70;;;;;;5066397;28;20119;-68
2021/07/30 02:37:23;;;;;;;9.77;4.03;;;12.10;83.90;;;;;;5069928;28;20043;-67
2021/07/30 02:39:48;;;;;;;11.15;4.35;;;12.10;83.80;;;;;;5066991;28;20492;-68
2021/07/30 02:42:14;;;;;;;12.02;3.97;;;12.10;83.40;;;;;;5068651;28;20131;-67
2021/07/30 02:44:39;;;;;;;8.02;4.00;;;12.10;83.90;;;;;;5086151;28;20391;-67
2021/07/30 02:47:05;;;;;;;8.32;4.07;;;12.10;83.40;;;;;;5055565;28;20135;-67
2021/07/30 02:49:31;;;;;;;12.45;3.88;;;12.10;83.30;;;;;;5081333;28;20028;-67
2021/07/30 02:51:57;;;;;;;10.82;3.65;;;12.10;83.10;;;;;;5087120;28;20394;-67
2021/07/30 02:54:22;;;;;;;7.68;3.83;;;12.30;82.70;;;;;;5085654;28;20032;-67
2021/07/30 02:56:48;;;;;;;11.57;3.97;;;12.30;82.80;;;;;;5084424;28;20216;-68
2021/07/30 02:59:13;;;;;;;11.27;4.10;;;12.20;82.70;;;;;;5066479;28;20488;-67
2021/07/30 03:01:39;;;;;;;9.68;4.10;;;12.10;82.70;;;;;;5086233;28;20028;-68
2021/07/30 03:04:04;;;;;;;6.95;4.05;;;12.10;83.20;;;;;;5090207;28;20433;-67
2021/07/30 03:06:30;;;;;;;8.18;3.72;;;12.10;83.10;;;;;;5091078;28;20024;-67
2021/07/30 03:08:56;;;;;;;11.63;3.75;;;12.00;83.30;;;;;;5090479;28;20020;-67
2021/07/30 03:11:22;;;;;;;11.70;4.35;;;12.00;83.40;;;;;;5072706;28;20024;-67
2021/07/30 03:13:48;;;;;;;11.02;4.15;;;12.00;83.20;;;;;;5071602;28;20073;-67
2021/07/30 03:16:14;;;;;;;10.70;4.22;;;12.00;83.20;;;;;;5071068;28;20040;-67
2021/07/30 03:18:40;;;;;;;8.68;3.70;;;12.00;83.30;;;;;;5089906;28;20545;-67
2021/07/30 03:21:06;;;;;;;14.90;4.30;;;11.90;83.80;;;;;;5063070;28;20477;-67
2021/07/30 03:23:32;;;;;;;9.32;4.55;;;12.00;83.30;;;;;;5070928;28;20123;-67
2021/07/30 03:25:57;;;;;;;13.02;4.63;;;12.00;83.00;;;;;;5087705;28;20437;-67
2021/07/30 03:28:23;;;;;;;9.57;4.45;;;12.00;83.20;;;;;;5089559;28;20499;-68
2021/07/30 03:30:48;;;;;;;9.13;4.15;;;12.00;83.30;;;;;;5071904;28;20038;-67
2021/07/30 03:33:14;;;;;;;9.07;4.25;;;11.90;83.60;;;;;;5090111;28;20457;-68
2021/07/30 03:35:40;;;;;;;10.10;4.47;;;11.90;83.70;;;;;;5090592;28;20607;-67
2021/07/30 03:38:06;;;;;;;8.20;4.45;;;11.80;84.10;;;;;;5089603;28;20036;-68
2021/07/30 03:40:32;;;;;;;9.68;4.10;;;11.70;84.30;;;;;;5055290;28;20031;-67
2021/07/30 03:42:58;;;;;;;9.02;4.22;;;11.70;84.30;;;;;;5071399;28;20460;-67
2021/07/30 03:45:24;;;;;;;9.73;4.22;;;11.80;84.30;;;;;;5088184;28;20576;-68
2021/07/30 03:47:50;;;;;;;10.75;4.22;;;11.70;84.50;;;;;;5082713;28;20036;-68
2021/07/30 03:50:15;;;;;;;9.88;4.63;;;11.70;84.60;;;;;;5089517;28;20569;-67
2021/07/30 03:52:41;;;;;;;14.65;5.05;;;11.70;84.80;;;;;;5087922;28;20028;-67
2021/07/30 03:55:07;;;;;;;9.32;4.35;;;11.80;84.50;;;;;;5057279;28;20031;-67
2021/07/30 03:57:33;;;;;;;14.90;5.13;;;11.70;84.80;;;;;;5090294;28;20051;-68
2021/07/30 03:59:58;;;;;;;14.77;4.70;;;11.70;84.70;;;;;;5088749;28;20028;-67
2021/07/30 04:02:24;;;;;;;9.70;4.70;;;11.80;84.80;;;;;;5069027;28;20115;-67
2021/07/30 04:04:50;;;;;;;13.00;4.78;;;11.70;84.90;;;;;;5087696;28;20031;-67
2021/07/30 04:07:15;;;;;;;12.65;4.90;;;11.80;85.20;;;;;;5086786;28;20032;-67
2021/07/30 04:09:41;;;;;;;11.50;4.82;;;11.70;85.20;;;;;;5071174;28;20054;-68
2021/07/30 04:12:07;;;;;;;12.65;5.03;;;11.80;84.80;;;;;;5088971;28;20024;-67
2021/07/30 04:14:33;;;;;;;9.20;4.50;;;11.90;84.60;;;;;;5087094;28;20032;-67
2021/07/30 04:16:58;;;;;;;12.15;5.45;;;11.90;84.80;;;;;;5071137;28;20050;-67
2021/07/30 04:19:24;;;;;;;12.90;4.93;;;11.90;84.70;;;;;;5088408;28;20032;-67
2021/07/30 04:21:51;;;;;;;9.93;5.18;;;11.90;84.60;;;;;;5062454;28;20507;-67
2021/07/30 04:24:17;;;;;;;13.57;5.20;;;12.00;84.60;;;;;;5091804;28;20544;-67
2021/07/30 04:26:43;;;;;;;9.02;4.85;;;12.00;84.90;;;;;;5068188;28;20115;-67
2021/07/30 04:29:08;;;;;;;14.65;5.72;;;12.00;84.90;;;;;;5070165;28;20032;-67
2021/07/30 04:31:41;;;;;;;11.75;5.35;;;12.10;84.60;;;;;;5067400;28;20377;-67
2021/07/30 04:34:07;;;;;;;13.43;5.72;;;12.10;84.50;;;;;;5082965;28;20031;-68
2021/07/30 04:36:33;;;;;;;10.30;5.35;;;12.10;84.70;;;;;;5055390;28;20020;-67
2021/07/30 04:38:58;;;;;;;11.23;5.72;;;12.20;84.60;;;;;;5069803;28;20036;-67
2021/07/30 04:41:24;;;;;;;15.60;5.60;;;12.20;84.60;;;;;;5080301;28;20514;-67
2021/07/30 04:43:50;;;;;;;11.45;5.28;;;12.20;84.70;;;;;;5068762;28;20028;-67
2021/07/30 04:46:16;;;;;;;12.98;5.60;;;12.30;84.70;;;;;;5056066;28;20032;-67
2021/07/30 04:48:43;;;;;;;14.15;5.72;;;12.30;84.60;;;;;;5068266;28;20442;-68
2021/07/30 04:51:09;;;;;;;14.85;5.75;;;12.40;84.50;;;;;;5089013;28;20131;-67
2021/07/30 04:53:34;;;;;;;13.10;5.60;;;12.50;84.50;;;;;;5085971;28;20510;-67
2021/07/30 04:56:00;;;;;;;13.88;5.65;;;12.50;84.60;;;;;;5065801;28;20032;-67
2021/07/30 04:58:25;;;;;;;14.52;5.85;;;12.50;84.60;;;;;;5087308;28;20477;-67
2021/07/30 05:00:51;;;;;;;10.07;5.13;;;12.50;84.50;;;;;;5067604;28;20225;-67
2021/07/30 05:03:17;;;;;;;13.63;5.90;;;12.60;84.60;;;;;;5068034;28;20171;-68
2021/07/30 05:05:42;;;;;;;12.48;5.75;;;12.60;84.60;;;;;;5067621;28;20032;-67
2021/07/30 05:08:08;;;;;;;12.13;5.93;;;12.60;85.00;;;;;;5084706;28;20036;-67
2021/07/30 05:10:33;;;;;;;14.68;6.13;;;12.70;84.50;;;;;;5065781;28;20085;-67
2021/07/30 05:13:00;;;;;;;14.80;5.95;;;12.80;84.30;;;;;;5088144;28;20028;-67
2021/07/30 05:15:25;;;;;;;13.93;5.78;;;12.90;84.30;;;;;;5064281;28;20058;-67
2021/07/30 05:17:51;;;;;;;13.32;6.38;;;13.00;84.50;;;;;;5083692;28;20473;-67
2021/07/30 05:20:17;;;;;;;12.15;5.57;;;13.00;84.30;;;;;;5070847;28;20031;-67
2021/07/30 05:22:42;;;;;;;16.85;6.38;;;13.10;84.30;;;;;;5064800;28;20054;-67
2021/07/30 05:25:12;;;;;;;10.05;5.60;;;13.20;84.10;;;;;;5086033;28;20251;-67
2021/07/30 05:27:38;;;;;;;14.45;6.25;;;13.30;84.40;;;;;;5062493;28;20016;-68
2021/07/30 05:30:04;;;;;;;12.60;5.72;;;13.30;84.20;;;;;;5085433;28;20391;-68
2021/07/30 05:32:29;;;;;;;17.58;6.13;;;13.50;84.00;;;;;;5087278;28;20372;-68
2021/07/30 05:34:55;;;;;;;15.20;6.50;;;13.60;83.80;;;;;;5085268;28;20024;-67
2021/07/30 05:37:20;;;;;;;13.90;6.15;;;13.70;83.20;;;;;;5087272;28;20032;-68
2021/07/30 05:39:46;;;;;;;13.82;6.25;;;13.80;82.70;;;;;;5081009;28;20063;-67
2021/07/30 05:42:12;;;;;;;14.43;6.05;;;13.90;82.80;;;;;;5080187;28;20137;-67
2021/07/30 05:44:39;;;;;;;13.70;6.22;;;14.10;83.10;;;;;;5084780;28;20047;-67
2021/07/30 05:47:05;;;;;;;15.45;5.53;;;14.10;82.40;;;;;;5083948;28;20024;-68
2021/07/30 05:49:30;;;;;;;15.70;5.75;;;14.30;82.00;;;;;;5087886;28;20578;-67
2021/07/30 05:51:56;;;;;;;17.52;6.30;;;14.40;82.00;;;;;;5087045;28;20028;-68
2021/07/30 05:54:22;;;;;;;13.65;5.95;;;14.50;81.20;;;;;;5084285;28;20028;-68
2021/07/30 05:56:47;;;;;;;12.00;5.18;;;14.60;81.30;;;;;;5083878;28;20521;-68
2021/07/30 05:59:13;;;;;;;13.93;5.68;;;14.80;79.90;;;;;;5084690;28;20501;-68
2021/07/30 06:01:39;;;;;;;13.63;5.20;;;14.90;80.30;;;;;;5084656;28;20036;-68
2021/07/30 06:04:05;;;;;;;16.75;5.72;;;15.00;80.90;;;;;;5067324;28;20122;-68
2021/07/30 06:06:31;;;;;;;13.90;5.47;;;15.10;79.50;;;;;;5087831;28;20095;-68
2021/07/30 06:08:56;;;;;;;11.38;5.78;;;15.30;78.80;;;;;;5086589;28;20020;-68
2021/07/30 06:11:22;;;;;;;12.25;5.00;;;15.30;78.80;;;;;;5066056;28;20032;-68
2021/07/30 06:13:47;;;;;;;11.07;5.47;;;15.40;78.60;;;;;;5064715;28;20035;-68
2021/07/30 06:16:13;;;;;;;8.88;5.05;;;15.50;78.10;;;;;;5067740;28;20035;-68
2021/07/30 06:18:39;;;;;;;13.73;4.97;;;15.50;78.20;;;;;;5067618;28;20492;-68
2021/07/30 06:21:05;;;;;;;9.75;4.63;;;15.50;77.00;;;;;;5064585;28;20253;-68
2021/07/30 06:23:31;;;;;;;11.55;4.93;;;15.60;77.50;;;;;;5067822;28;20047;-67
2021/07/30 06:25:57;;;;;;;13.30;5.00;;;15.60;76.50;;;;;;5085627;28;20017;-68
2021/07/30 06:28:23;;;;;;;13.38;5.05;;;15.70;76.20;;;;;;5084367;28;20027;-68
2021/07/30 06:30:48;;;;;;;13.65;4.95;;;15.80;76.80;;;;;;5087015;28;20377;-68
2021/07/30 06:33:14;;;;;;;12.15;4.68;;;15.90;76.20;;;;;;5066200;28;20043;-68
2021/07/30 06:35:40;;;;;;;10.27;4.63;;;16.00;76.00;;;;;;5064270;28;20495;-68
2021/07/30 06:38:07;;;;;;;14.90;4.50;;;16.10;75.70;;;;;;5072883;28;20024;-68
2021/07/30 06:40:32;;;;;;;12.23;4.30;;;16.20;75.10;;;;;;5091311;28;20028;-68
2021/07/30 06:42:58;;;;;;;9.93;4.68;;;16.30;74.20;;;;;;5071718;28;20032;-68
2021/07/30 06:45:24;;;;;;;15.80;5.20;;;16.50;74.70;;;;;;5090499;28;20027;-68
2021/07/30 06:47:50;;;;;;;12.07;5.00;;;16.70;73.30;;;;;;5089883;28;20024;-69
2021/07/30 06:50:16;;;;;;;13.05;4.72;;;16.80;72.90;;;;;;5072842;28;20173;-68
2021/07/30 06:52:41;;;;;;;14.40;5.25;;;16.50;73.50;;;;;;5090500;28;20032;-68
2021/07/30 06:55:07;;;;;;;13.40;4.47;;;16.50;74.30;;;;;;5090207;28;20471;-68
2021/07/30 06:57:33;;;;;;;12.45;4.50;;;16.60;75.10;;;;;;5087378;28;20510;-68
2021/07/30 06:59:58;;;;;;;14.07;4.78;;;16.40;74.60;;;;;;5086554;28;20032;-67
2021/07/30 07:02:24;;;;;;;11.90;4.63;;;16.50;74.60;;;;;;5067833;28;20020;-67
2021/07/30 07:04:50;;;;;;;20.85;4.97;;;16.50;74.00;;;;;;5068697;28;20029;-67
2021/07/30 07:07:15;;;;;;;10.80;5.03;;;16.80;74.10;;;;;;5069147;28;20126;-68
2021/07/30 07:09:41;;;;;;;11.77;4.32;;;17.00;74.40;;;;;;5071603;28;20024;-67
2021/07/30 07:12:07;;;;;;;9.02;4.13;;;17.20;73.90;;;;;;5072692;28;20484;-68
2021/07/30 07:14:32;;;;;;;10.85;5.07;;;17.30;73.10;;;;;;5089638;28;20035;-67
2021/07/30 07:16:58;;;;;;;10.10;4.05;;;17.40;71.50;;;;;;5067928;28;20036;-68
2021/07/30 07:19:25;;;;;;;11.52;4.60;;;17.70;73.50;;;;;;5088645;28;20154;-67
2021/07/30 07:21:50;;;;;;;14.82;4.53;;;17.60;71.20;;;;;;5090794;28;20035;-68
2021/07/30 07:24:17;;;;;;;10.88;4.07;;;17.70;71.80;;;;;;5083668;28;20574;-68
2021/07/30 07:26:43;;;;;;;10.70;4.85;;;17.70;70.30;;;;;;5087203;28;20028;-68
2021/07/30 07:29:09;;;;;;;10.70;4.40;;;17.90;70.00;;;;;;5085475;28;20036;-67
2021/07/30 07:31:35;;;;;;;10.55;4.38;;;18.00;69.50;;;;;;5053823;28;20021;-68
2021/07/30 07:34:01;;;;;;;10.77;4.13;;;18.00;69.30;;;;;;5084236;28;20035;-67
2021/07/30 07:36:27;;;;;;;7.93;3.90;;;18.10;69.20;;;;;;5088400;28;20327;-68
2021/07/30 07:38:52;;;;;;;8.82;4.25;;;18.40;69.80;;;;;;5068908;28;20032;-68
2021/07/30 07:41:18;;;;;;;10.00;4.38;;;18.50;69.20;;;;;;5086413;28;20101;-68
2021/07/30 07:43:44;;;;;;;11.18;4.00;;;18.60;69.10;;;;;;5084605;28;20038;-68
2021/07/30 07:46:09;;;;;;;10.13;3.70;;;18.60;67.80;;;;;;5068969;28;20282;-67
2021/07/30 07:48:35;;;;;;;11.00;3.75;;;18.80;68.60;;;;;;5063801;28;20025;-68
2021/07/30 07:51:01;;;;;;;7.45;3.75;;;18.90;66.50;;;;;;5068100;28;20127;-68
2021/07/30 07:53:27;;;;;;;11.20;3.75;;;19.00;67.20;;;;;;5086021;28;20032;-68
2021/07/30 07:56:06;;;;;;;12.45;3.90;;;19.00;66.30;;;;;;5087816;28;20096;-68
2021/07/30 07:58:33;;;;;;;12.73;3.90;;;19.00;66.20;;;;;;5067756;28;20028;-67
2021/07/30 08:00:59;;;;;;;10.73;3.15;;;19.10;66.20;;;;;;5066315;28;20518;-68
2021/07/30 08:03:25;;;;;;;12.25;3.67;;;19.30;66.40;;;;;;5089280;28;20039;-67
2021/07/30 08:05:51;;;;;;;10.45;3.50;;;19.20;65.10;;;;;;5069269;28;20396;-67
2021/07/30 08:08:17;;;;;;;9.60;3.70;;;19.30;64.40;;;;;;5066235;28;20020;-67
2021/07/30 08:10:43;;;;;;;10.77;3.55;;;19.30;63.20;;;;;;5088002;28;20032;-67
2021/07/30 08:13:08;;;;;;;8.00;3.08;;;19.50;64.30;;;;;;5053645;28;20036;-68
2021/07/30 08:15:34;;;;;;;11.13;3.38;;;19.50;62.60;;;;;;5047171;28;20082;-68
2021/07/30 08:18:00;;;;;;;9.95;3.30;;;19.70;62.90;;;;;;5053746;28;20051;-67
2021/07/30 08:20:26;;;;;;;10.82;3.25;;;19.50;62.30;;;;;;5065341;28;20421;-68
2021/07/30 08:22:51;;;;;;;7.38;3.13;;;19.60;61.70;;;;;;5065969;28;20340;-68
2021/07/30 08:25:17;;;;;;;7.95;3.03;;;19.70;61.00;;;;;;5061851;28;20035;-68
2021/07/30 08:27:42;;;;;;;10.65;3.63;;;19.90;61.00;;;;;;5066744;28;20040;-68
2021/07/30 08:30:09;;;;;;;7.57;3.35;;;20.20;61.40;;;;;;5070271;28;20035;-67
2021/07/30 08:32:34;;;;;;;6.93;3.10;;;20.30;61.50;;;;;;5086339;28;20077;-68
2021/07/30 08:35:01;;;;;;;9.90;2.70;;;20.30;59.70;;;;;;5069188;28;20032;-68
2021/07/30 08:37:27;;;;;;;6.95;2.70;;;20.30;58.00;;;;;;5089725;28;20336;-67
2021/07/30 08:39:52;;;;;;;8.55;3.25;;;20.20;57.30;;;;;;5088826;28;20211;-67
2021/07/30 08:42:19;;;;;;;9.60;2.65;;;20.30;58.20;;;;;;5065934;28;20523;-68
2021/07/30 08:44:45;;;;;;;7.93;2.83;;;20.50;57.80;;;;;;5068364;28;20024;-68
2021/07/30 08:47:13;;;;;;;10.25;3.30;;;20.70;60.10;;;;;;5068718;28;20060;-68
2021/07/30 08:49:40;;;;;;;9.93;3.10;;;20.90;58.40;;;;;;5082268;28;20040;-68
2021/07/30 08:52:08;;;;;;;10.95;3.25;;;21.00;57.70;;;;;;5088448;28;20036;-68
2021/07/30 08:54:34;;;;;;;7.68;2.85;;;21.00;58.10;;;;;;5086876;28;20031;-68
2021/07/30 08:57:00;;;;;;;6.20;2.67;;;21.00;59.80;;;;;;5087870;28;20029;-68
2021/07/30 08:59:25;;;;;;;7.68;3.00;;;21.10;56.40;;;;;;5084229;28;20032;-68
2021/07/30 09:01:54;;;;;;;12.50;3.17;;;21.10;55.50;;;;;;5064218;28;20431;-68
2021/07/30 09:04:30;;;;;;;8.68;2.60;;;21.10;56.00;;;;;;5052536;28;20035;-68
2021/07/30 09:06:57;;;;;;;7.60;2.67;;;21.50;55.80;;;;;;5081787;28;20031;-68
2021/07/30 09:09:24;;;;;;;13.23;2.80;;;21.30;53.90;;;;;;5084380;28;20438;-68
2021/07/30 09:11:54;;;;;;;9.10;2.58;;;21.60;53.70;;;;;;5065703;28;20025;-68
2021/07/30 09:14:37;;;;;;;6.55;2.70;;;21.50;55.00;;;;;;5086763;28;20028;-67
2021/07/30 09:17:06;;;;;;;6.57;2.25;;;21.40;53.00;;;;;;5084262;28;20075;-68
2021/07/30 09:19:33;;;;;;;8.75;2.50;;;21.50;51.90;;;;;;5084920;28;20093;-67
2021/07/30 09:22:10;;;;;;;9.70;2.55;;;21.80;54.50;;;;;;5086658;28;20043;-68
2021/07/30 09:24:41;;;;;;;7.43;2.50;;;21.80;50.40;;;;;;5061231;28;20109;-68
2021/07/30 09:27:09;;;;;;;7.43;2.70;;;21.80;52.10;;;;;;5068698;28;20674;-68
2021/07/30 09:29:36;;;;;;;8.57;2.67;;;22.00;52.50;;;;;;5069043;28;20024;-68
2021/07/30 09:32:11;;;;;;;5.00;2.60;;;21.50;50.20;;;;;;5067491;28;20052;-69
2021/07/30 09:34:51;;;;;;;5.25;2.20;;;21.70;51.90;;;;;;5084099;28;20110;-68
2021/07/30 09:37:22;;;;;;;4.47;2.00;;;21.90;50.40;;;;;;5061311;28;20024;-68
2021/07/30 09:39:50;;;;;;;6.18;2.28;;;22.20;48.10;;;;;;5085613;28;20115;-68
2021/07/30 09:42:17;;;;;;;7.60;2.50;;;22.30;50.20;;;;;;5067923;28;20105;-68
2021/07/30 09:44:51;;;;;;;9.25;2.35;;;22.40;50.30;;;;;;5083458;28;20032;-68
2021/07/30 09:47:29;;;;;;;8.30;2.53;;;22.10;49.50;;;;;;5085303;28;20110;-67
2021/07/30 09:50:05;;;;;;;8.65;2.20;;;22.20;49.80;;;;;;5064286;28;20516;-68
2021/07/30 09:52:33;;;;;;;8.00;2.55;;;21.80;48.50;;;;;;5087860;28;20032;-68
2021/07/30 09:55:01;;;;;;;7.28;1.90;;;22.50;50.00;;;;;;5074520;28;20032;-68
2021/07/30 09:57:29;;;;;;;8.05;2.20;;;22.20;47.10;;;;;;5064348;28;20036;-68
2021/07/30 10:00:05;;;;;;;10.45;2.28;;;22.60;47.90;;;;;;5067090;28;20377;-68
2021/07/30 10:02:33;;;;;;;9.73;2.15;;;22.70;46.60;;;;;;5084845;28;20115;-68
2021/07/30 10:05:01;;;;;;;7.05;2.03;;;22.80;45.70;;;;;;5086820;28;20056;-68
2021/07/30 10:07:28;;;;;;;7.30;2.60;;;23.00;48.60;;;;;;5068620;28;20028;-68
2021/07/30 10:10:17;;;;;;;4.82;2.13;;;23.20;46.60;;;;;;5088312;28;20275;-69
2021/07/30 10:13:00;;;;;;;5.32;1.98;;;23.10;44.40;;;;;;5067643;28;20031;-68
2021/07/30 10:15:26;;;;;;;6.13;1.90;;;23.20;46.20;;;;;;5088481;28;20153;-68
2021/07/30 10:17:53;;;;;;;7.07;2.17;;;23.30;43.30;;;;;;5046883;28;20482;-68
2021/07/30 10:20:21;;;;;;;7.10;1.88;;;23.10;43.50;;;;;;5051495;28;20338;-68
2021/07/30 10:23:04;;;;;;;6.97;2.00;;;23.00;43.70;;;;;;5081364;28;20028;-67
2021/07/30 10:25:47;;;;;;;4.60;1.75;;;22.90;45.30;;;;;;5090822;28;20035;-69
2021/07/30 10:28:21;;;;;;;5.72;2.22;;;22.90;43.50;;;;;;5082662;28;20034;-68
2021/07/30 10:30:57;;;;;;;4.10;1.83;;;23.00;44.90;;;;;;5082527;28;20577;-67
2021/07/30 10:33:37;;;;;;;7.32;1.80;;;22.90;44.30;;;;;;5084148;28;20103;-67
2021/07/30 10:36:09;;;;;;;6.43;1.98;;;23.40;44.60;;;;;;5067103;28;20294;-69
2021/07/30 10:38:36;;;;;;;5.50;1.42;;;23.80;41.10;;;;;;5082187;28;20063;-68
2021/07/30 10:41:07;;;;;;;5.00;2.10;;;23.40;42.90;;;;;;5034714;28;20032;-69
2021/07/30 10:44:01;;;;;;;6.32;1.98;;;23.80;41.90;;;;;;5087246;28;20111;-68
2021/07/30 10:46:27;;;;;;;4.18;1.88;;;23.80;40.90;;;;;;5060475;28;20055;-69
2021/07/30 10:48:55;;;;;;;4.82;1.88;;;23.60;41.20;;;;;;5065135;28;20036;-69
2021/07/30 10:51:22;;;;;;;4.53;1.67;;;23.70;42.60;;;;;;5080775;28;20037;-69
2021/07/30 10:53:55;;;;;;;4.72;2.00;;;23.70;43.00;;;;;;5085366;28;20115;-68
2021/07/30 10:56:20;;;;;;;7.68;2.20;;;24.00;43.00;;;;;;5088035;28;20055;-68
2021/07/30 10:58:46;;;;;;;8.15;2.35;;;23.70;43.70;;;;;;5066282;28;20028;-69
2021/07/30 11:01:16;;;;;;;4.18;1.83;;;24.00;41.60;;;;;;5086284;28;20033;-68
2021/07/30 11:03:51;;;;;;;5.57;2.05;;;24.00;42.60;;;;;;5068796;28;20047;-68
2021/07/30 11:06:17;;;;;;;7.50;1.83;;;23.90;42.60;;;;;;5088224;28;20024;-68
2021/07/30 11:11:43;;;;;;;5.53;2.05;;;24.30;41.30;;;;;;5087663;28;20024;-68
2021/07/30 11:14:18;;;;;;;5.10;2.25;;;24.30;40.60;;;;;;5087056;28;20047;-69
2021/07/30 11:16:45;;;;;;;5.68;2.13;;;23.90;40.40;;;;;;5085600;28;20024;-69
2021/07/30 11:19:13;;;;;;;6.78;2.45;;;24.40;41.70;;;;;;5074930;28;20047;-69
2021/07/30 11:21:39;;;;;;;5.13;2.00;;;24.30;43.00;;;;;;5062656;28;20074;-68
2021/07/30 11:24:05;;;;;;;6.63;2.33;;;24.40;43.30;;;;;;5046478;28;20492;-69
2021/07/30 11:26:33;;;;;;;7.90;2.00;;;24.50;41.70;;;;;;5072860;28;20028;-69
2021/07/30 11:29:00;;;;;;;6.80;1.90;;;24.30;40.50;;;;;;5090311;28;20401;-69
2021/07/30 11:31:27;;;;;;;7.57;2.20;;;24.30;40.70;;;;;;5090050;28;20063;-69
2021/07/30 11:33:54;;;;;;;5.75;2.10;;;24.40;40.50;;;;;;5089960;28;20119;-69
2021/07/30 11:36:20;;;;;;;7.95;2.00;;;24.50;41.50;;;;;;5091317;28;20028;-69
2021/07/30 11:38:50;;;;;;;5.53;1.83;;;24.50;39.80;;;;;;5052418;28;20061;-69
2021/07/30 11:41:16;;;;;;;6.53;1.95;;;24.60;39.40;;;;;;5089860;28;20043;-69
2021/07/30 11:44:07;;;;;;;6.32;2.00;;;24.50;38.80;;;;;;5067732;28;20403;-69
2021/07/30 11:46:33;;;;;;;3.35;1.50;;;24.80;38.80;;;;;;5083592;28;20039;-69
2021/07/30 11:49:01;;;;;;;8.32;1.92;;;24.60;40.10;;;;;;5062754;28;20027;-68
2021/07/30 11:51:27;;;;;;;6.63;2.05;;;24.70;39.90;;;;;;5086858;28;20016;-69
2021/07/30 11:53:54;;;;;;;7.15;2.13;;;25.50;40.30;;;;;;5085039;28;20046;-69
2021/07/30 11:56:21;;;;;;;4.18;1.73;;;25.80;40.40;;;;;;5068827;28;20077;-69
2021/07/30 11:58:59;;;;;;;4.28;1.70;;;25.60;38.80;;;;;;5085741;28;20121;-69
2021/07/30 12:01:30;;;;;;;4.65;2.05;;;25.40;39.90;;;;;;5064180;28;20058;-69
2021/07/30 12:04:08;;;;;;;5.78;1.90;;;25.70;38.70;;;;;;5088311;28;20441;-69
2021/07/30 12:06:44;;;;;;;4.03;1.92;;;26.00;39.70;;;;;;5089741;28;20032;-69
2021/07/30 12:09:12;;;;;;;6.15;2.20;;;25.50;37.20;;;;;;5089854;28;20024;-69
2021/07/30 12:11:42;;;;;;;4.90;1.77;;;25.90;39.60;;;;;;5069697;28;20028;-69
2021/07/30 12:14:10;;;;;;;3.70;1.73;;;25.70;38.10;;;;;;5087897;28;20492;-69
2021/07/30 12:16:36;;;;;;;5.82;1.77;;;26.30;39.40;;;;;;5055429;28;20043;-69
2021/07/30 12:19:02;;;;;;;7.88;2.15;;;26.40;37.90;;;;;;5070450;28;20063;-69
2021/07/30 12:21:27;;;;;;;3.70;1.77;;;26.00;37.90;;;;;;5070669;28;20048;-69
2021/07/30 12:24:07;;;;;;;4.50;1.85;;;26.40;39.80;;;;;;5083597;28;20526;-69
2021/07/30 12:26:37;;;;;;;4.97;1.92;;;26.30;37.90;;;;;;5068882;28;20394;-69
2021/07/30 12:29:04;;;;;;;5.53;2.20;;;26.50;37.40;;;;;;5082809;28;20068;-72
2021/07/30 12:31:31;;;;;;;4.95;1.92;;;26.30;38.20;;;;;;5085041;28;20020;-69
2021/07/30 12:34:14;;;;;;;5.13;1.88;;;26.80;37.20;;;;;;5052017;28;20020;-69
2021/07/30 12:36:41;;;;;;;3.75;1.60;;;26.60;37.10;;;;;;5088306;28;20553;-69
2021/07/30 12:39:07;;;;;;;7.32;2.10;;;27.10;37.00;;;;;;5069505;28;20031;-69
2021/07/30 12:41:34;;;;;;;6.45;2.10;;;27.10;37.60;;;;;;5088263;28;20040;-69
2021/07/30 12:44:14;;;;;;;4.65;2.15;;;26.40;37.40;;;;;;5066004;28;20036;-69
2021/07/30 12:46:46;;;;;;;4.10;1.70;;;26.50;38.10;;;;;;5088891;28;20035;-69
2021/07/30 12:49:13;;;;;;;4.72;1.60;;;26.80;36.30;;;;;;5070095;28;20032;-69